Plainfield, Illinois
Current Conditions -  °F | °C
As of 5:55 PM on Wednesday 22 Oct 2014 (Local Time) from KLOT Reporting Station
Haze Haze  
Wind Chill: 47°   Ceiling: 700
Heat Index: 49°   Visibility: 1.7mi
Dew Point: 35°   Wind: 7mph
Humidity: 57%   Direction: 110°ESE
Pressure: 30.27"   Gusts: NA
Location:  41.62°N, 88.2°W
Report Text: KLOT 222255Z AUTO 11006KT 1 3/4SM HZ VV007 10/02 A3027 RMK AO2 T00970016
Loading
Personal Weather Stations






























Interactive Weather Map New forecast layout! Learn more

10-Day Weather Forecast

Advertisements
Track Severe Weather on mobile